Robinson, North Dakota
Current Conditions -  °F | °C
As of 6:15 PM on Friday 21 Nov 2014 (Local Time) from K46D Reporting Station
Clear Clear  
Wind Chill: 29°   Ceiling: Unl
Heat Index: 37°   Visibility: 10mi
Dew Point: 30°   Wind: 14mph
Humidity: 75%   Direction: 250°WSW
Pressure: 29.64"   Gusts: 17mph
Location:  47.14°N, 99.78°W
Report Text: K46D 220015Z AUTO 25012G15KT 10SM CLR 03/M01 A2964 RMK AO2
Loading
Personal Weather Stations






























Interactive Weather Map New forecast layout! Learn more

10-Day Weather Forecast

Advertisements
Track Severe Weather on mobile